This is the latest recevied weather packets stored in our database for station/object WB0VGI-1. If no packets are shown the sender has not sent any weather packets the latest 10 day(s).
| Time | Temp. | Humidity | Pressure | Rain* | Wind** | Luminosity | Snow |
|---|---|---|---|---|---|---|---|
| 1777712826 | 3.89° C | 58% | 1022.5 hPa | 0 mm | - | - | - |
| 1777712707 | 3.89° C | 58% | 1022.5 hPa | 0 mm | - | - | - |
| 1777711626 | 4.44° C | 58% | 1022.4 hPa | 0 mm | - | - | - |
| 1777710426 | 4.44° C | 58% | 1022.5 hPa | 0 mm | - | - | - |
| 1777709226 | 4.44° C | 58% | 1022.5 hPa | 0 mm | - | - | - |
| 1777708026 | 5° C | 58% | 1022.6 hPa | 0 mm | - | - | - |
| 1777706826 | 5° C | 58% | 1022.7 hPa | 0 mm | - | - | - |
| 1777705626 | 5° C | 59% | 1022.8 hPa | 0 mm | - | - | - |
| 1777704426 | 5° C | 61% | 1023 hPa | 0 mm | - | - | - |
| 1777703226 | 5° C | 59% | 1022.9 hPa | 0 mm | - | - | - |
| 1777702026 | 5° C | 58% | 1022.9 hPa | 0 mm | - | - | - |
| 1777700826 | 5.56° C | 58% | 1022.9 hPa | 0 mm | - | - | - |
| 1777699626 | 5.56° C | 58% | 1022.9 hPa | 0 mm | - | - | - |
| 1777698426 | 6.11° C | 54% | 1022.7 hPa | 0 mm | - | - | - |
| 1777697226 | 6.11° C | 50% | 1022.6 hPa | 0 mm | - | - | - |
| 1777696026 | 6.11° C | 49% | 1022.7 hPa | 0 mm | - | - | - |
| 1777694825 | 6.67° C | 47% | 1022.6 hPa | 0 mm | - | - | - |
| 1777693626 | 7.22° C | 46% | 1022.7 hPa | 0 mm | - | - | - |
| 1777692426 | 7.22° C | 45% | 1022.7 hPa | 0 mm | - | - | - |
| 1777691225 | 7.78° C | 44% | 1022.6 hPa | 0 mm | - | - | - |
| 1777690026 | 8.33° C | 43% | 1022.5 hPa | 0 mm | - | - | - |
| 1777688826 | 8.89° C | 42% | 1022.3 hPa | 0 mm | - | - | - |
| 1777687626 | 9.44° C | 43% | 1022.1 hPa | 0 mm | - | - | - |
| 1777686425 | 10.56° C | 39% | 1021.7 hPa | 0 mm | - | - | - |
| 1777685225 | 11.67° C | 38% | 1021.4 hPa | 0 mm | - | - | - |
* Rain latest hour (hover to see other rain measurements)
** Current wind speed in m/s (hover to see current wind gust speed)